WetterOnline ( http://www.wetteronline.de )

Wetter aktuell Südschwarzwald (in 1400m)

Aktuelles Wetter: Feldberg/Schwarzwald (1493m)

6-stündlich | Neueste Meldungen
Ortszeit Temperatur Wetter
Di, 16.10. 8:00 11.5° C wolkenlos
Di, 16.10. 2:00 11.6° C wolkenlos
Mo, 15.10. 20:00 12.1° C wolkenlos
Mo, 15.10. 14:00 12.9° C fast wolkenlos
Mo, 15.10. 8:00 10.1° C wolkenlos
Mo, 15.10. 2:00 11.9° C wolkenlos
So, 14.10. 20:00 13.5° C wolkenlos
So, 14.10. 14:00 14.9° C wolkenlos
Ortszeit Temperatur Wetter
Di, 16.10. 11:30 12.7° C leicht bewölkt
Di, 16.10. 11:20 12.7° C leicht bewölkt
Di, 16.10. 11:10 12.6° C fast wolkenlos
Di, 16.10. 11:00 12.7° C leicht bewölkt
Di, 16.10. 10:50 12.7° C leicht bewölkt
Di, 16.10. 10:40 12.5° C leicht bewölkt
Di, 16.10. 10:30 12.2° C wolkenlos
Di, 16.10. 10:00 11.8° C leicht bewölkt
Di, 16.10. 9:30 11.6° C fast wolkenlos
Di, 16.10. 9:00 11.9° C leicht bewölkt
Di, 16.10. 8:30 11.8° C fast wolkenlos
Ortszeit Relative Feuchte Sichtweite
Di, 16.10. 8:00 41% 55 km
Di, 16.10. 2:00 44% 45 km
Mo, 15.10. 20:00 43% 50 km
Mo, 15.10. 14:00 44% 50 km
Mo, 15.10. 8:00 59% 50 km
Mo, 15.10. 2:00 38% 60 km
So, 14.10. 20:00 28% >70 km
So, 14.10. 14:00 36% 50 km
Ortszeit Relative Feuchte Sichtweite
Di, 16.10. 11:30 43% 50 km
Di, 16.10. 11:20 43% -
Di, 16.10. 11:10 44% -
Di, 16.10. 11:00 43% 40 km
Di, 16.10. 10:50 43% -
Di, 16.10. 10:40 42% -
Di, 16.10. 10:30 45% 65 km
Di, 16.10. 10:00 46% 60 km
Di, 16.10. 9:30 47% 40 km
Di, 16.10. 9:00 42% 55 km
Di, 16.10. 8:30 40% 45 km
Ortszeit Niederschlagsmenge Niederschlagsart
Di, 16.10. 8:00 0.0 l/m2 in 12 Std. -
Di, 16.10. 2:00 0.0 l/m2 in 6 Std. -
Mo, 15.10. 20:00 0.0 l/m2 in 12 Std. -
Mo, 15.10. 14:00 0.0 l/m2 in 6 Std. -
Mo, 15.10. 8:00 0.0 l/m2 in 12 Std. -
Mo, 15.10. 2:00 0.0 l/m2 in 6 Std. -
So, 14.10. 20:00 0.0 l/m2 in 12 Std. -
So, 14.10. 14:00 0.0 l/m2 in 6 Std. -
Ortszeit Niederschlagsmenge Niederschlagsart
Di, 16.10. 11:30 0.0 l/m2 in 1 Std. -
Di, 16.10. 11:20 keine Meldung -
Di, 16.10. 11:10 keine Meldung -
Di, 16.10. 11:00 0.0 l/m2 in 1 Std. -
Di, 16.10. 10:50 keine Meldung -
Di, 16.10. 10:40 keine Meldung -
Di, 16.10. 10:30 0.0 l/m2 in 1 Std. -
Di, 16.10. 10:00 0.0 l/m2 in 1 Std. -
Di, 16.10. 9:30 0.0 l/m2 in 1 Std. -
Di, 16.10. 9:00 0.0 l/m2 in 1 Std. -
Di, 16.10. 8:30 0.0 l/m2 in 1 Std. -
Ortszeit Stärke Spitze Richtung
km/h Bft. km/h Grad Sektor
Di, 16.10. 8:00 20 4 24 90° O
Di, 16.10. 2:00 11 2 26 170° S
Mo, 15.10. 20:00 22 4 30 110° O
Mo, 15.10. 14:00 13 3 43 90° O
Mo, 15.10. 8:00 14 3 22 60° NO
Mo, 15.10. 2:00 18 3 36 180° S
So, 14.10. 20:00 22 4 32 150° SO
So, 14.10. 14:00 19 3 37 180° S
Ortszeit Stärke Spitze Richtung
km/h Bft. km/h Grad Sektor
Di, 16.10. 11:30 17 3 28 110° O
Di, 16.10. 11:20 17 3 - 110° O
Di, 16.10. 11:10 17 3 - 110° O
Di, 16.10. 11:00 18 3 25 110° O
Di, 16.10. 10:50 18 3 - 110° O
Di, 16.10. 10:40 22 4 - 110° O
Di, 16.10. 10:30 22 4 25 120° SO
Di, 16.10. 10:00 22 4 25 130° SO
Di, 16.10. 9:30 20 4 24 110° O
Di, 16.10. 9:00 18 3 22 100° O
Di, 16.10. 8:30 18 3 22 100° O
Ortszeit Untergrenze Bedeckung Gattung
total tief tief mittel hoch
Di, 16.10. 8:00 - 0/8 0/8 - - -
Di, 16.10. 2:00 - 0/8 0/8 - - -
Mo, 15.10. 20:00 - 0/8 0/8 - - -
Mo, 15.10. 14:00 12000 m 1/8 0/8 - - -
Mo, 15.10. 8:00 - 0/8 0/8 - - -
Mo, 15.10. 2:00 - 0/8 0/8 - - -
So, 14.10. 20:00 - 0/8 0/8 - - -
So, 14.10. 14:00 - 0/8 0/8 - - -
Ortszeit Bedeckungsgrad in Achtel und Wolkenuntergrenze
Di, 16.10. 11:30 3(12000m)
Di, 16.10. 11:20 3(12000m)
Di, 16.10. 11:10 1(12000m)
Di, 16.10. 11:00 2(7200m) 3(12000m)
Di, 16.10. 10:50 2(7200m) 3(12000m)
Di, 16.10. 10:40 3(7200m)
Di, 16.10. 10:30 keine Wolken
Di, 16.10. 10:00 6(7200m)
Di, 16.10. 9:30 1(8100m)
Di, 16.10. 9:00 2(8100m) 3(12000m)
Di, 16.10. 8:30 1(12000m)
Ortszeit Stationsdruck (hPa) Tendenz (hPa in 3 Std.)
Di, 16.10. 8:00 853 + 0,3
Di, 16.10. 2:00 852 + 0,5
Mo, 15.10. 20:00 851 + 0,8
Mo, 15.10. 14:00 850 - 0,1
Mo, 15.10. 8:00 849 + 0,4
Mo, 15.10. 2:00 849 + 0,3
So, 14.10. 20:00 849 0,0
So, 14.10. 14:00 849 - 0,5
Ortszeit Stationsdruck (hPa) Tendenz (hPa in 3 Std.)
Di, 16.10. 11:30 853 + 0,7
Di, 16.10. 11:20 853 keine Meldung
Di, 16.10. 11:10 854 keine Meldung
Di, 16.10. 11:00 853 + 0,9
Di, 16.10. 10:50 853 keine Meldung
Di, 16.10. 10:40 853 keine Meldung
Di, 16.10. 10:30 853 + 0,9
Di, 16.10. 10:00 853 + 0,6
Di, 16.10. 9:30 853 + 0,4
Di, 16.10. 9:00 853 + 0,4
Di, 16.10. 8:30 853 + 0,4
Ortszeit Schneehöhe (cm)
Di, 16.10. 8:00 0
Di, 16.10. 2:00 0
Mo, 15.10. 20:00 0
Mo, 15.10. 14:00 0
Mo, 15.10. 8:00 0
Mo, 15.10. 2:00 0
So, 14.10. 20:00 0
So, 14.10. 14:00 0
Ortszeit Schneehöhe (cm)
Di, 16.10. 11:30 0
Di, 16.10. 11:20 0
Di, 16.10. 11:10 0
Di, 16.10. 11:00 0
Di, 16.10. 10:50 0
Di, 16.10. 10:40 0
Di, 16.10. 10:30 0
Di, 16.10. 10:00 0
Di, 16.10. 9:30 0
Di, 16.10. 9:00 0
Di, 16.10. 8:30 0
Link zu dieser Seite / Seite empfehlen

Das Wetter in ...